Time;durP1;ratioP1;P1;durP2;ratioP2;P2;SDS_P1;SDS_P2;PMS_P1;PMS_P2;Temp;Humidity;BMP_temperature;BMP_pressure;BME280_temperature;BME280_humidity;BME280_pressure;Samples;Min_cycle;Max_cycle;Signal;HPM_P1;HPM_P2
2024/03/13 00:01:08;;;;;;;0.10;0.10;;;;;;;-145.06;100.00;53041.91;10452218;28;20375;-71
2024/03/13 00:06:09;;;;;;;0.00;0.00;;;;;;;-145.06;100.00;53058.09;10456074;28;20029;-71
2024/03/13 00:11:09;;;;;;;0.00;0.00;;;;;;;-145.06;100.00;53118.84;10456785;28;20025;-71
2024/03/13 00:16:12;;;;;;;0.00;0.00;;;;;;;-145.06;100.00;53110.75;10455410;28;20044;-71
2024/03/13 00:21:12;;;;;;;0.10;0.10;;;;;;;-145.06;100.00;53145.16;10455386;28;20071;-70
2024/03/13 00:26:13;;;;;;;0.00;0.00;;;;;;;-145.06;100.00;53177.56;10453196;28;20028;-71
2024/03/13 00:31:13;;;;;;;0.00;0.00;;;;;;;-145.06;100.00;53216.03;10455159;28;20063;-71
2024/03/13 00:36:13;;;;;;;0.03;0.03;;;;;;;-145.06;100.00;53266.66;10454556;28;20282;-71
2024/03/13 00:41:14;;;;;;;0.00;0.00;;;;;;;-145.06;100.00;53301.09;10454862;28;20078;-70
2024/03/13 00:46:14;;;;;;;0.00;0.00;;;;;;;-145.06;100.00;53481.31;10454284;28;20036;-71
2024/03/13 00:51:14;;;;;;;0.00;0.00;;;;;;;-145.06;100.00;53631.16;10454244;28;20044;-71
2024/03/13 00:56:15;;;;;;;0.00;0.00;;;;;;;-145.06;100.00;53815.44;10452716;28;20021;-71
2024/03/13 01:01:18;;;;;;;0.00;0.00;;;;;;;-145.06;100.00;54036.19;10453688;28;20012;-71
2024/03/13 01:06:18;;;;;;;0.00;0.00;;;;;;;-145.06;100.00;54054.41;10453359;28;21480;-71
2024/03/13 01:11:19;;;;;;;0.00;0.00;;;;;;;-145.06;100.00;53914.66;10453033;28;20402;-71
2024/03/13 01:16:19;;;;;;;0.10;0.10;;;;;;;-145.06;100.00;53760.75;10453013;28;20449;-71
2024/03/13 01:21:23;;;;;;;0.00;0.00;;;;;;;-145.06;100.00;53679.75;10452760;28;20475;-71
2024/03/13 01:26:24;;;;;;;0.00;0.00;;;;;;;-145.06;100.00;53685.81;10450014;28;20039;-70
2024/03/13 01:31:26;;;;;;;0.00;0.00;;;;;;;-145.06;100.00;53872.13;10452346;28;20493;-71
2024/03/13 01:58:07;;;;;;;0.00;0.00;;;;;;;-145.06;100.00;53997.69;10450808;28;20016;-71
2024/03/13 02:03:09;;;;;;;0.00;0.00;;;;;;;-145.06;100.00;54078.72;10449473;28;20032;-71
2024/03/13 02:08:14;;;;;;;0.00;0.00;;;;;;;-145.06;100.00;54096.94;10451449;28;20032;-70
2024/03/13 02:13:17;;;;;;;0.00;0.00;;;;;;;-145.06;100.00;54560.75;10450902;28;20025;-70
2024/03/13 02:18:21;;;;;;;0.00;0.00;;;;;;;-145.06;100.00;55079.31;10450072;28;20107;-70
2024/03/13 02:23:22;;;;;;;0.00;0.00;;;;;;;-145.06;100.00;54664.03;10448529;28;20037;-70
2024/03/13 02:28:32;;;;;;;0.00;0.00;;;;;;;-145.06;100.00;54082.75;10449973;28;20021;-70
2024/03/13 02:33:36;;;;;;;0.00;0.00;;;;;;;-145.06;100.00;54173.91;10450353;28;20555;-70
2024/03/13 02:38:36;;;;;;;0.00;0.00;;;;;;;-145.06;100.00;55099.56;10448016;28;20025;-70
2024/03/13 02:43:40;;;;;;;0.00;0.00;;;;;;;-145.06;100.00;54986.13;10449880;28;20111;-71
2024/03/13 02:48:40;;;;;;;0.00;0.00;;;;;;;-145.06;100.00;54331.88;10449499;28;20032;-71
2024/03/13 02:53:41;;;;;;;0.00;0.00;;;;;;;-145.06;100.00;54844.31;10449384;28;20032;-71
2024/03/13 02:58:42;;;;;;;0.00;0.00;;;;;;;-145.06;100.00;55208.97;10449090;28;20029;-70
2024/03/13 03:03:42;;;;;;;0.00;0.00;;;;;;;-145.06;100.00;55261.63;10448993;28;20033;-70
2024/03/13 03:08:44;;;;;;;0.00;0.00;;;;;;;-145.06;100.00;55326.47;10449344;28;20013;-70
2024/03/13 03:13:44;;;;;;;0.10;0.10;;;;;;;-145.06;100.00;54629.63;10448701;28;20432;-69
2024/03/13 03:18:44;;;;;;;0.00;0.00;;;;;;;-145.06;100.00;54149.59;10448256;28;20071;-70
2024/03/13 03:23:45;;;;;;;0.00;0.00;;;;;;;-145.06;100.00;54200.22;10448800;28;20027;-70
2024/03/13 03:28:45;;;;;;;0.00;0.00;;;;;;;-145.06;100.00;54566.81;10448303;28;20074;-70
2024/03/13 03:33:45;;;;;;;0.00;0.00;;;;;;;-145.06;100.00;54487.81;10450430;28;20378;-70
2024/03/13 03:38:46;;;;;;;0.00;0.00;;;;;;;-145.06;100.00;54431.13;10455274;28;20062;-69
2024/03/13 03:43:46;;;;;;;0.00;0.00;;;;;;;-145.06;100.00;54376.44;10456995;28;20033;-69
2024/03/13 03:48:46;;;;;;;0.00;0.00;;;;;;;-145.06;100.00;54874.72;10456423;28;20024;-70
2024/03/13 03:53:46;;;;;;;0.00;0.00;;;;;;;-145.06;100.00;54526.31;10456279;28;20361;-70
2024/03/13 03:58:47;;;;;;;0.00;0.00;;;;;;;-145.06;100.00;54220.47;10456020;28;20086;-70
2024/03/13 04:03:48;;;;;;;0.00;0.00;;;;;;;-145.06;100.00;54374.41;10456094;28;20171;-70
2024/03/13 04:08:50;;;;;;;0.00;0.00;;;;;;;-145.06;100.00;54528.34;10456029;28;20455;-70
2024/03/13 04:13:51;;;;;;;0.00;0.00;;;;;;;-145.06;100.00;54672.16;10455970;28;20478;-70
2024/03/13 04:18:51;;;;;;;0.00;0.00;;;;;;;-145.06;100.00;54489.84;10453588;28;20055;-69
2024/03/13 04:23:53;;;;;;;0.00;0.00;;;;;;;-145.06;100.00;54692.41;10455410;28;20040;-70
2024/03/13 04:28:53;;;;;;;0.00;0.00;;;;;;;-145.06;100.00;55040.81;10453650;28;20024;-70
2024/03/13 04:33:53;;;;;;;0.00;0.00;;;;;;;-145.06;100.00;54913.19;10451104;28;20020;-69
2024/03/13 04:38:54;;;;;;;0.00;0.00;;;;;;;-145.06;100.00;54718.72;10453088;28;20373;-70
2024/03/13 04:43:54;;;;;;;0.00;0.00;;;;;;;-145.06;100.00;55257.56;10454060;28;20051;-70
2024/03/13 04:48:54;;;;;;;0.00;0.00;;;;;;;-145.06;100.00;55557.41;10452353;28;20025;-69
2024/03/13 04:53:55;;;;;;;0.00;0.00;;;;;;;-145.06;100.00;55285.94;10453357;28;20029;-70
2024/03/13 04:58:55;;;;;;;0.00;0.00;;;;;;;-145.06;100.00;55158.31;10453037;28;20497;-69
2024/03/13 05:03:56;;;;;;;0.00;0.00;;;;;;;-145.06;100.00;55227.19;10425621;28;20033;-69
2024/03/13 05:08:56;;;;;;;0.00;0.00;;;;;;;-145.06;100.00;54980.03;10452270;28;20024;-69
2024/03/13 05:13:56;;;;;;;0.00;0.00;;;;;;;-145.06;100.00;54552.66;10450620;28;20363;-69
2024/03/13 05:18:57;;;;;;;0.00;0.00;;;;;;;-145.06;100.00;54978.03;10452174;28;20028;-69
2024/03/13 05:23:57;;;;;;;0.00;0.00;;;;;;;-145.06;100.00;55334.56;10449155;28;20032;-69
2024/03/13 05:28:59;;;;;;;0.00;0.00;;;;;;;-145.06;100.00;55099.56;10451479;28;20013;-69
2024/03/13 05:34:00;;;;;;;0.00;0.00;;;;;;;-145.06;100.00;55050.94;10450602;28;20293;-67
2024/03/13 05:39:00;;;;;;;0.00;0.00;;;;;;;-145.06;100.00;54394.66;10465037;28;20017;-68
2024/03/13 05:44:01;;;;;;;0.00;0.00;;;;;;;-145.06;100.00;54248.84;10450656;28;20282;-69
2024/03/13 05:49:01;;;;;;;0.00;0.00;;;;;;;-145.06;100.00;54212.38;10450679;28;20398;-69
2024/03/13 05:54:02;;;;;;;0.00;0.00;;;;;;;-145.06;100.00;54107.06;10449921;28;20435;-69
2024/03/13 05:59:03;;;;;;;0.00;0.00;;;;;;;-145.06;100.00;53959.22;10449384;28;20271;-69
2024/03/13 06:04:03;;;;;;;0.00;0.00;;;;;;;-145.06;100.00;53778.97;10447145;28;20029;-68
2024/03/13 06:09:03;;;;;;;0.00;0.00;;;;;;;-145.06;100.00;53260.59;10448467;28;20069;-70
2024/03/13 06:14:04;;;;;;;0.00;0.00;;;;;;;-145.06;100.00;52762.50;10449644;28;20017;-68
2024/03/13 06:19:04;;;;;;;0.00;0.00;;;;;;;-145.06;100.00;52624.84;10446827;28;20272;-69
2024/03/13 06:24:06;;;;;;;0.00;0.00;;;;;;;-145.06;100.00;52572.19;10449644;28;20037;-69
2024/03/13 06:34:24;;;;;;;0.05;0.05;;;;;;;-145.06;100.00;52426.44;10447883;28;20025;-69
2024/03/13 06:39:25;;;;;;;0.00;0.00;;;;;;;-145.06;100.00;52394.06;10442825;28;20467;-69
2024/03/13 06:44:25;;;;;;;0.00;0.00;;;;;;;-145.06;100.00;52345.47;10448429;28;20388;-69
2024/03/13 06:49:26;;;;;;;0.00;0.00;;;;;;;-145.06;100.00;52242.22;10448890;28;20463;-70
2024/03/13 06:54:26;;;;;;;0.10;0.10;;;;;;;-145.06;100.00;52292.84;10450301;28;20082;-69
2024/03/13 06:59:26;;;;;;;0.00;0.00;;;;;;;-145.06;100.00;52236.16;10448090;28;20524;-70
2024/03/13 07:04:27;;;;;;;0.03;0.03;;;;;;;-145.06;100.00;52189.59;10449394;28;20474;-70
2024/03/13 07:09:27;;;;;;;0.10;0.10;;;;;;;-145.06;97.03;52256.41;10446463;28;20025;-70
2024/03/13 07:14:28;;;;;;;0.10;0.10;;;;;;;-145.06;96.16;52270.56;10448954;28;20401;-69
2024/03/13 07:19:31;;;;;;;0.10;0.10;;;;;;;-145.06;95.06;52317.13;10447296;28;20485;-69
2024/03/13 07:24:32;;;;;;;0.10;0.10;;;;;;;-145.06;93.21;52315.09;10444867;28;20064;-70
2024/03/13 07:29:33;;;;;;;0.10;0.10;;;;;;;-145.06;91.12;52284.75;10446816;28;20024;-70
2024/03/13 07:34:33;;;;;;;0.10;0.10;;;;;;;-145.06;89.13;52355.59;10447257;28;20094;-70
2024/03/13 07:39:34;;;;;;;0.10;0.10;;;;;;;-145.06;89.35;52371.78;10445914;28;20040;-70
2024/03/13 07:44:34;;;;;;;0.10;0.10;;;;;;;-145.06;89.50;52438.59;10445747;28;20354;-69
2024/03/13 07:49:34;;;;;;;0.05;0.05;;;;;;;-145.06;91.72;52422.41;10447728;28;20017;-70
2024/03/13 07:54:37;;;;;;;0.10;0.10;;;;;;;-145.06;90.96;52402.16;10447657;28;20525;-70
2024/03/13 07:59:40;;;;;;;0.10;0.10;;;;;;;-145.06;88.08;52460.84;10446284;28;20028;-70
2024/03/13 08:04:40;;;;;;;1.00;0.63;;;;;;;-145.06;92.39;52420.38;10446610;28;20017;-70
2024/03/13 08:09:41;;;;;;;0.00;0.00;;;;;;;-145.06;92.92;52499.31;10446755;28;20144;-70
2024/03/13 08:14:41;;;;;;;0.10;0.10;;;;;;;-145.06;98.09;52511.47;10443991;28;20021;-70
2024/03/13 08:19:41;;;;;;;0.10;0.10;;;;;;;-145.06;98.21;52519.56;10446410;28;20024;-70
2024/03/13 08:24:41;;;;;;;0.00;0.00;;;;;;;-145.06;98.47;52576.25;10454160;28;20100;-70
2024/03/13 08:29:42;;;;;;;0.10;0.10;;;;;;;-145.06;100.00;52564.09;10453730;28;20009;-70
2024/03/13 08:34:45;;;;;;;0.10;0.10;;;;;;;-145.06;100.00;52545.88;10454922;28;20033;-69
2024/03/13 08:39:46;;;;;;;0.00;0.00;;;;;;;-145.06;100.00;52533.75;10451697;28;20391;-70
2024/03/13 08:44:47;;;;;;;0.10;0.10;;;;;;;-145.06;99.71;52491.22;10450058;28;20025;-70
2024/03/13 08:49:48;;;;;;;0.10;0.10;;;;;;;-145.06;99.38;52460.84;10451070;28;20498;-70
2024/03/13 08:54:48;;;;;;;0.10;0.10;;;;;;;-145.06;97.48;52466.94;10453413;28;20081;-71
2024/03/13 08:59:48;;;;;;;0.20;0.20;;;;;;;-145.06;95.49;52454.78;10452435;28;20036;-70
2024/03/13 09:04:49;;;;;;;0.10;0.10;;;;;;;-145.06;93.42;52466.94;10453275;28;20020;-71
2024/03/13 09:09:49;;;;;;;0.00;0.00;;;;;;;-145.06;96.42;52468.97;10452270;28;20013;-69
2024/03/13 09:14:49;;;;;;;0.10;0.10;;;;;;;-145.06;94.22;52499.31;10451584;28;20106;-71
2024/03/13 09:19:51;;;;;;;0.00;0.00;;;;;;;-145.06;94.29;52491.22;10449858;28;20367;-70
2024/03/13 09:24:52;;;;;;;0.10;0.10;;;;;;;-145.06;94.72;52495.28;10451684;28;20090;-72
2024/03/13 09:29:52;;;;;;;0.10;0.10;;;;;;;-145.06;93.17;52503.38;10451899;28;20017;-71
2024/03/13 09:34:52;;;;;;;0.10;0.10;;;;;;;-145.06;94.68;52473.00;10451436;28;20082;-71
2024/03/13 09:39:52;;;;;;;0.00;0.00;;;;;;;-145.06;95.38;52499.31;10451489;28;20028;-71
2024/03/13 09:44:55;;;;;;;0.10;0.10;;;;;;;-145.06;97.28;52477.06;10451286;28;20591;-71
2024/03/13 09:49:56;;;;;;;0.10;0.10;;;;;;;-145.06;94.83;52503.38;10448677;28;20058;-72
2024/03/13 09:54:58;;;;;;;0.10;0.10;;;;;;;-145.06;96.24;52531.72;10449183;28;20055;-72
2024/03/13 10:00:01;;;;;;;0.20;0.20;;;;;;;-145.06;97.11;52533.75;10450788;28;20024;-71
2024/03/13 10:05:03;;;;;;;0.10;0.10;;;;;;;-145.06;99.13;52444.66;10451230;28;20034;-71
2024/03/13 10:10:28;;;;;;;0.03;0.03;;;;;;;-145.06;97.25;52430.50;10449491;28;20028;-71
2024/03/13 10:15:29;;;;;;;0.10;0.10;;;;;;;-145.06;96.66;52383.94;10449221;28;20024;-71
2024/03/13 10:20:38;;;;;;;0.10;0.10;;;;;;;-145.06;96.00;52387.97;10448292;28;20021;-71
2024/03/13 10:25:42;;;;;;;0.10;0.10;;;;;;;-145.06;95.97;52448.72;10446118;28;20017;-71
2024/03/13 10:30:43;;;;;;;0.10;0.10;;;;;;;-145.06;98.02;52460.84;10449033;28;20025;-72
2024/03/13 10:35:43;;;;;;;0.00;0.00;;;;;;;-145.06;99.78;52452.75;10450244;28;20374;-72
2024/03/13 10:40:44;;;;;;;0.00;0.00;;;;;;;-145.06;100.00;52444.66;10448754;28;20025;-71
2024/03/13 10:45:48;;;;;;;0.00;0.00;;;;;;;-145.06;100.00;52438.59;10446660;28;20383;-72
2024/03/13 10:50:48;;;;;;;;;;;;;;;-145.06;100.00;52410.25;10444535;28;20028;-72
2024/03/13 10:55:49;;;;;;;0.05;0.05;;;;;;;-145.06;100.00;52400.13;10441971;28;20291;-72
2024/03/13 11:00:49;;;;;;;0.00;0.00;;;;;;;-145.06;99.62;52377.84;10448385;28;20071;-72
2024/03/13 11:05:50;;;;;;;0.10;0.10;;;;;;;-145.06;100.00;52385.97;10448292;28;20352;-71
2024/03/13 11:10:51;;;;;;;0.10;0.10;;;;;;;-145.06;100.00;52337.38;10447463;28;20074;-72
2024/03/13 11:15:54;;;;;;;0.10;0.10;;;;;;;-145.06;100.00;52339.41;10447617;28;20035;-72
2024/03/13 11:21:02;;;;;;;0.00;0.00;;;;;;;-145.06;100.00;52280.69;10449004;28;20122;-72
2024/03/13 11:26:04;;;;;;;0.00;0.00;;;;;;;-145.06;100.00;52309.03;10443722;28;20540;-72
2024/03/13 11:31:05;;;;;;;0.00;0.00;;;;;;;-145.06;100.00;52309.03;10446052;28;20021;-72
2024/03/13 11:36:09;;;;;;;0.10;0.10;;;;;;;-145.06;100.00;52292.84;10447651;28;20063;-72
2024/03/13 11:41:12;;;;;;;0.03;0.03;;;;;;;-145.06;100.00;52329.28;10447600;28;20052;-72
2024/03/13 11:46:12;;;;;;;0.10;0.10;;;;;;;-145.06;100.00;52244.25;10445886;28;20056;-72
2024/03/13 11:51:13;;;;;;;0.10;0.10;;;;;;;-145.06;98.82;52268.53;10447498;28;20025;-72
2024/03/13 11:56:21;;;;;;;0.10;0.10;;;;;;;-145.06;98.62;52260.44;10450322;28;20032;-72
2024/03/13 12:01:21;;;;;;;0.00;0.00;;;;;;;-145.06;98.16;52252.34;10453142;28;20040;-72
2024/03/13 12:06:22;;;;;;;0.00;0.00;;;;;;;-145.06;97.90;52238.19;10454760;28;20039;-72
2024/03/13 12:11:25;;;;;;;0.00;0.00;;;;;;;-145.06;99.88;52228.06;10455003;28;20124;-72
2024/03/13 12:16:26;;;;;;;0.10;0.10;;;;;;;-145.06;96.87;52268.53;10453823;28;20060;-72
2024/03/13 12:21:28;;;;;;;0.00;0.00;;;;;;;-145.06;99.21;52213.88;10454383;28;20025;-73
2024/03/13 12:26:29;;;;;;;0.10;0.10;;;;;;;-145.06;97.61;52228.06;10453536;28;20111;-72
2024/03/13 12:31:30;;;;;;;0.10;0.10;;;;;;;-145.06;97.16;52276.63;10452168;28;20020;-71
2024/03/13 12:36:45;;;;;;;0.10;0.10;;;;;;;-145.06;99.36;52317.13;10453273;28;20017;-72
2024/03/13 12:41:45;;;;;;;0.10;0.10;;;;;;;-145.06;100.00;52313.06;10452290;28;21653;-72
2024/03/13 12:46:46;;;;;;;0.00;0.00;;;;;;;-145.06;100.00;52292.84;10451159;28;20052;-72
2024/03/13 12:51:52;;;;;;;0.10;0.10;;;;;;;-145.06;100.00;52292.84;10453482;28;20514;-71
2024/03/13 12:56:54;;;;;;;0.00;0.00;;;;;;;-145.06;100.00;52260.44;10451918;28;20025;-72
2024/03/13 13:01:54;;;;;;;0.10;0.10;;;;;;;-145.06;100.00;52224.00;10452759;28;20676;-72
2024/03/13 13:06:55;;;;;;;0.00;0.00;;;;;;;-145.06;100.00;52219.97;10449929;28;20075;-72
2024/03/13 13:11:55;;;;;;;0.10;0.10;;;;;;;-145.06;99.33;52236.16;10452974;28;20048;-72
2024/03/13 13:16:55;;;;;;;0.10;0.10;;;;;;;-145.06;100.00;52242.22;10451694;28;20032;-72
2024/03/13 13:21:56;;;;;;;0.00;0.00;;;;;;;-145.06;100.00;52262.47;10451731;28;20506;-73
2024/03/13 13:26:56;;;;;;;0.00;0.00;;;;;;;-145.06;100.00;52224.00;10451930;28;20376;-72
2024/03/13 13:31:57;;;;;;;0.00;0.00;;;;;;;-145.06;100.00;52270.56;10451670;28;20067;-72
2024/03/13 13:36:57;;;;;;;0.10;0.10;;;;;;;-145.06;100.00;52260.44;10449228;28;20114;-72
2024/03/13 13:41:58;;;;;;;0.00;0.00;;;;;;;-145.06;100.00;52240.19;10451848;28;20803;-72
2024/03/13 13:46:58;;;;;;;0.00;0.00;;;;;;;-145.06;100.00;52230.09;10451234;28;20424;-70
2024/03/13 13:51:58;;;;;;;0.10;0.10;;;;;;;-145.06;100.00;52252.34;10450844;28;20017;-70
2024/03/13 13:56:59;;;;;;;0.10;0.10;;;;;;;-145.06;100.00;52230.09;10450482;28;20485;-72
2024/03/13 14:02:00;;;;;;;0.10;0.10;;;;;;;-145.06;100.00;52242.22;10449385;28;20443;-70
2024/03/13 14:07:01;;;;;;;0.10;0.10;;;;;;;-145.06;100.00;52224.00;10449786;28;20049;-70
2024/03/13 14:12:01;;;;;;;0.05;0.05;;;;;;;-145.06;100.00;52219.97;10449150;28;20029;-70
2024/03/13 14:17:02;;;;;;;0.00;0.00;;;;;;;-145.06;100.00;52224.00;10450302;28;20627;-70
2024/03/13 14:22:03;;;;;;;0.00;0.00;;;;;;;-145.06;100.00;52234.13;10447926;28;20433;-69
2024/03/13 14:27:04;;;;;;;0.03;0.03;;;;;;;-145.06;100.00;52250.31;10449595;28;20025;-71
2024/03/13 14:32:08;;;;;;;0.10;0.10;;;;;;;-145.06;100.00;52221.97;10449139;28;20079;-70
2024/03/13 14:37:12;;;;;;;0.05;0.05;;;;;;;-145.06;100.00;52224.00;10449113;28;20036;-71
2024/03/13 14:42:12;;;;;;;0.10;0.10;;;;;;;-145.06;100.00;52236.16;10443878;28;20029;-71
2024/03/13 14:47:13;;;;;;;0.10;0.10;;;;;;;-145.06;100.00;52234.13;10448749;28;20035;-71
2024/03/13 14:52:14;;;;;;;0.00;0.00;;;;;;;-145.06;100.00;52211.88;10449502;28;20074;-71
2024/03/13 14:57:14;;;;;;;0.10;0.10;;;;;;;-145.06;100.00;52215.91;10448727;28;20520;-71
2024/03/13 15:02:15;;;;;;;0.10;0.10;;;;;;;-145.06;100.00;52238.19;10448196;28;20021;-71
2024/03/13 15:07:17;;;;;;;0.10;0.10;;;;;;;-145.06;100.00;52177.44;10447390;28;20113;-71
2024/03/13 15:12:17;;;;;;;0.10;0.10;;;;;;;-145.06;100.00;52155.19;10446359;28;20032;-71
2024/03/13 15:17:18;;;;;;;0.10;0.10;;;;;;;-145.06;100.00;52145.06;10447275;28;20032;-71
2024/03/13 15:22:20;;;;;;;0.10;0.10;;;;;;;-145.06;100.00;52122.78;10447269;28;20357;-72
2024/03/13 15:27:22;;;;;;;0.10;0.10;;;;;;;-145.06;100.00;52106.59;10447374;28;20703;-71
2024/03/13 15:32:23;;;;;;;0.08;0.08;;;;;;;-145.06;100.00;52078.25;10447788;28;20116;-70
2024/03/13 15:37:23;;;;;;;0.10;0.10;;;;;;;-145.06;100.00;52086.34;10447657;28;20041;-71
2024/03/13 15:42:24;;;;;;;0.10;0.10;;;;;;;-145.06;100.00;52094.47;10448008;28;20017;-71
2024/03/13 15:47:24;;;;;;;0.10;0.10;;;;;;;-145.06;100.00;52128.88;10444789;28;20290;-71
2024/03/13 15:52:24;;;;;;;0.10;0.10;;;;;;;-145.06;100.00;52094.47;10447138;28;20021;-71
2024/03/13 15:57:26;;;;;;;0.10;0.10;;;;;;;-145.06;100.00;52098.50;10447627;28;20032;-71
2024/03/13 16:02:28;;;;;;;0.10;0.10;;;;;;;-145.06;100.00;52098.50;10447614;28;20044;-71
2024/03/13 16:07:31;;;;;;;0.10;0.10;;;;;;;-145.06;100.00;52086.34;10443137;28;20014;-71
2024/03/13 16:12:34;;;;;;;0.10;0.10;;;;;;;-145.06;100.00;52084.34;10447514;28;20017;-71
2024/03/13 16:17:35;;;;;;;0.00;0.00;;;;;;;-145.06;100.00;52104.56;10447879;28;20421;-72
2024/03/13 16:22:35;;;;;;;0.10;0.10;;;;;;;-145.06;100.00;52102.56;10447378;28;20029;-71
2024/03/13 16:27:37;;;;;;;0.10;0.10;;;;;;;-145.06;100.00;52147.09;10448027;28;20100;-71
2024/03/13 16:32:37;;;;;;;0.10;0.10;;;;;;;-145.06;100.00;52126.84;10447456;28;20094;-72
2024/03/13 16:37:38;;;;;;;0.10;0.10;;;;;;;-145.06;100.00;52181.50;10447155;28;20118;-71
2024/03/13 16:42:38;;;;;;;0.00;0.00;;;;;;;-145.06;100.00;52185.53;10448916;28;20025;-71
2024/03/13 16:47:40;;;;;;;0.07;0.07;;;;;;;-145.06;100.00;52224.00;10454107;28;20486;-71
2024/03/13 16:52:43;;;;;;;0.10;0.10;;;;;;;-145.06;100.00;52232.09;10452712;28;20620;-70
2024/03/13 16:57:44;;;;;;;0.10;0.10;;;;;;;-145.06;100.00;52274.63;10451749;28;20024;-68
2024/03/13 17:02:45;;;;;;;0.10;0.10;;;;;;;-145.06;100.00;52309.03;10453786;28;20520;-69
2024/03/13 17:07:46;;;;;;;0.00;0.00;;;;;;;-145.06;100.00;52335.34;10453612;28;20078;-68
2024/03/13 17:12:47;;;;;;;0.10;0.10;;;;;;;-145.06;100.00;52327.25;10453497;28;20441;-69
2024/03/13 17:17:50;;;;;;;0.10;0.10;;;;;;;-145.06;100.00;52363.69;10453394;28;20021;-68
2024/03/13 17:22:51;;;;;;;0.10;0.10;;;;;;;-145.06;100.00;52390.00;10449192;28;20478;-69
2024/03/13 17:27:52;;;;;;;0.10;0.10;;;;;;;-145.06;100.00;52448.72;10451704;28;20044;-69
2024/03/13 17:32:52;;;;;;;0.10;0.10;;;;;;;-145.06;100.00;52511.47;10452014;28;20494;-68
2024/03/13 17:37:53;;;;;;;0.10;0.10;;;;;;;-145.06;100.00;52517.53;10452352;28;20051;-69
2024/03/13 17:42:54;;;;;;;0.00;0.00;;;;;;;-145.06;100.00;52576.25;10452545;28;20021;-69
2024/03/13 17:47:56;;;;;;;0.08;0.08;;;;;;;-145.06;100.00;52568.16;10451920;28;20013;-69
2024/03/13 17:52:57;;;;;;;0.10;0.10;;;;;;;-145.06;100.00;52604.59;10451709;28;20051;-69
2024/03/13 17:57:58;;;;;;;0.10;0.10;;;;;;;-145.06;100.00;52671.41;10451315;28;20490;-69
2024/03/13 18:02:59;;;;;;;0.10;0.10;;;;;;;-145.06;100.00;52734.16;10451767;28;20021;-69
2024/03/13 18:08:00;;;;;;;0.00;0.00;;;;;;;-145.06;100.00;52762.50;10451435;28;20070;-69
2024/03/13 18:13:00;;;;;;;0.00;0.00;;;;;;;-145.06;100.00;52894.09;10450803;28;20071;-69
2024/03/13 18:18:00;;;;;;;0.10;0.10;;;;;;;-145.06;100.00;53005.47;10451208;28;20029;-69
2024/03/13 18:23:01;;;;;;;0.10;0.10;;;;;;;-145.06;100.00;53098.59;10451179;28;20087;-69
2024/03/13 18:28:02;;;;;;;0.10;0.10;;;;;;;-145.06;100.00;53240.34;10448953;28;20020;-69
2024/03/13 18:33:03;;;;;;;0.10;0.10;;;;;;;-145.06;100.00;53485.34;10450702;28;20109;-69
2024/03/13 18:38:04;;;;;;;0.10;0.10;;;;;;;-145.06;100.00;53748.59;10447680;28;20167;-68
2024/03/13 18:43:04;;;;;;;0.10;0.10;;;;;;;-145.06;100.00;53993.66;10450634;28;20116;-69
2024/03/13 18:48:05;;;;;;;0.10;0.10;;;;;;;-145.06;100.00;54062.50;10447849;28;20304;-69
2024/03/13 18:53:07;;;;;;;0.00;0.00;;;;;;;-145.06;100.00;54222.50;10449805;28;20487;-69
2024/03/13 18:58:07;;;;;;;0.00;0.00;;;;;;;-145.06;100.00;54558.72;10449471;28;20057;-69
2024/03/13 19:03:08;;;;;;;0.10;0.10;;;;;;;-145.06;100.00;54674.19;10449190;28;20074;-69
2024/03/13 19:08:09;;;;;;;0.10;0.10;;;;;;;-145.06;100.00;54767.34;10448446;28;20029;-69
2024/03/13 19:13:10;;;;;;;0.10;0.10;;;;;;;-145.06;100.00;54937.50;10448003;28;20021;-68
2024/03/13 19:18:10;;;;;;;0.10;0.10;;;;;;;-145.06;100.00;55046.91;10447356;28;20505;-68
2024/03/13 19:23:11;;;;;;;0.10;0.10;;;;;;;-145.06;100.00;55200.84;10448349;28;20116;-68
2024/03/13 19:28:13;;;;;;;0.00;0.00;;;;;;;-145.06;100.00;55573.63;10446723;28;20025;-68
2024/03/13 19:33:14;;;;;;;0.00;0.00;;;;;;;-145.06;100.00;55650.63;10449116;28;20044;-68
2024/03/13 19:38:14;;;;;;;0.10;0.10;;;;;;;-145.06;100.00;55719.50;10449624;28;20021;-68
2024/03/13 19:43:15;;;;;;;0.10;0.10;;;;;;;-145.06;100.00;56303.06;10448390;28;20544;-68
2024/03/13 19:48:15;;;;;;;0.10;0.10;;;;;;;-145.06;100.00;56724.56;10448182;28;20029;-67
2024/03/13 19:53:15;;;;;;;0.10;0.10;;;;;;;-145.06;100.00;58518.50;10448473;28;20027;-67
2024/03/13 19:58:16;;;;;;;0.10;0.10;;;;;;;-145.06;100.00;59996.84;10463399;28;20021;-67
2024/03/13 20:03:16;;;;;;;0.10;0.10;;;;;;;-145.06;100.00;60288.94;10448133;28;20033;-67
2024/03/13 20:08:16;;;;;;;0.10;0.10;;;;;;;-145.06;100.00;59579.06;10447988;28;20029;-68
2024/03/13 20:13:17;;;;;;;0.10;0.10;;;;;;;-145.06;100.00;59424.91;10447867;28;20354;-68
2024/03/13 20:18:17;;;;;;;0.10;0.10;;;;;;;-145.06;100.00;58609.75;10451517;28;20041;-68
2024/03/13 20:23:18;;;;;;;0.10;0.10;;;;;;;-145.06;100.00;58441.47;10455674;28;20024;-67
2024/03/13 20:28:18;;;;;;;0.10;0.10;;;;;;;-145.06;100.00;57825.16;10454595;28;20532;-68
2024/03/13 20:33:19;;;;;;;0.10;0.10;;;;;;;-145.06;100.00;56688.09;10455185;28;20024;-67
2024/03/13 20:38:20;;;;;;;0.00;0.00;;;;;;;-145.06;100.00;55322.41;10454707;28;20391;-68
2024/03/13 20:43:21;;;;;;;0.10;0.10;;;;;;;-145.06;100.00;54145.53;10454037;28;20390;-67
2024/03/13 20:48:21;;;;;;;0.10;0.10;;;;;;;-145.06;100.00;53558.25;10455311;28;20031;-67
2024/03/13 20:53:21;;;;;;;0.00;0.00;;;;;;;-145.06;100.00;53193.78;10454458;28;20264;-67
2024/03/13 20:58:22;;;;;;;0.10;0.10;;;;;;;-145.06;100.00;53102.66;10454338;28;20283;-67
2024/03/13 21:03:22;;;;;;;0.10;0.10;;;;;;;-145.06;100.00;52971.03;10454080;28;20039;-67
2024/03/13 21:08:24;;;;;;;0.10;0.10;;;;;;;-145.06;100.00;52641.03;10454276;28;20025;-67
2024/03/13 21:13:26;;;;;;;0.10;0.10;;;;;;;-145.06;100.00;52448.72;10453887;28;20056;-67
2024/03/13 21:18:37;;;;;;;0.10;0.10;;;;;;;-145.06;100.00;52203.75;10453284;28;20029;-67
2024/03/13 21:23:37;;;;;;;0.10;0.10;;;;;;;-145.06;100.00;52264.50;10453489;28;20027;-67
2024/03/13 21:28:37;;;;;;;0.05;0.05;;;;;;;-145.06;100.00;52337.38;10452741;28;20112;-67
2024/03/13 21:33:38;;;;;;;0.10;0.10;;;;;;;-145.06;100.00;52420.38;10453433;28;20021;-67
2024/03/13 21:38:39;;;;;;;0.10;0.10;;;;;;;-145.06;100.00;52549.94;10452729;28;20021;-68
2024/03/13 21:43:41;;;;;;;0.00;0.00;;;;;;;-145.06;100.00;52614.72;10452386;28;20021;-68
2024/03/13 21:48:42;;;;;;;0.00;0.00;;;;;;;-145.06;100.00;52645.09;10451312;28;20024;-68
2024/03/13 21:53:42;;;;;;;0.00;0.00;;;;;;;-145.06;100.00;52724.03;10447706;28;20025;-68
2024/03/13 21:58:42;;;;;;;0.00;0.00;;;;;;;-145.06;100.00;52908.28;10452305;28;20334;-68
2024/03/13 22:03:43;;;;;;;0.00;0.00;;;;;;;-145.06;100.00;53195.78;10451577;28;20433;-68
2024/03/13 22:08:43;;;;;;;0.10;0.10;;;;;;;-145.06;100.00;53315.25;10451090;28;20024;-68
2024/03/13 22:13:43;;;;;;;0.10;0.10;;;;;;;-145.06;100.00;53511.69;10451123;28;20027;-67
2024/03/13 22:18:43;;;;;;;0.00;0.00;;;;;;;-145.06;100.00;53661.53;10450810;28;20154;-68
2024/03/13 22:23:45;;;;;;;0.10;0.10;;;;;;;-145.06;100.00;53799.22;10450809;28;20021;-68
2024/03/13 22:28:45;;;;;;;0.10;0.10;;;;;;;-145.06;100.00;53789.09;10450382;28;20398;-67
2024/03/13 22:33:46;;;;;;;0.10;0.10;;;;;;;-145.06;100.00;53639.25;10450567;28;20028;-67
2024/03/13 22:38:46;;;;;;;0.00;0.00;;;;;;;-145.06;100.00;53501.56;10449519;28;20025;-67
2024/03/13 22:43:47;;;;;;;0.00;0.00;;;;;;;-145.06;100.00;53414.47;10449752;28;20071;-68
2024/03/13 22:48:47;;;;;;;0.10;0.10;;;;;;;-145.06;100.00;53400.31;10450133;28;20012;-68
2024/03/13 22:53:47;;;;;;;0.10;0.10;;;;;;;-145.06;100.00;53665.56;10449642;28;20017;-68
2024/03/13 22:58:47;;;;;;;0.10;0.10;;;;;;;-145.06;100.00;53886.31;10449585;28;20413;-68
2024/03/13 23:03:48;;;;;;;0.10;0.10;;;;;;;-145.06;100.00;53825.56;10449814;28;20045;-68